Time;durP1;ratioP1;P1;durP2;ratioP2;P2;SDS_P1;SDS_P2;PMS_P1;PMS_P2;Temp;Humidity;BMP_temperature;BMP_pressure;BME280_temperature;BME280_humidity;BME280_pressure;Samples;Min_cycle;Max_cycle;Signal;HPM_P1;HPM_P2
2023/02/21 02:14:55;;;;;;;;;;;;;;;6.66;45.50;93143.00;2054252;70;20417;-81
2023/02/21 02:17:30;;;;;;;;;;;;;;;6.56;45.70;93148.50;2055044;69;20054;-80
2023/02/21 02:19:56;;;;;;;;;;;;;;;6.47;46.04;93134.41;2054507;70;20072;-79
2023/02/21 02:22:40;;;;;;;;;;;;;;;6.45;45.48;93145.44;2054377;69;20043;-77
2023/02/21 02:25:26;;;;;;;;;;;;;;;6.35;45.91;93134.16;2055218;69;20059;-79
2023/02/21 02:27:54;;;;;;;;;;;;;;;6.35;46.13;93131.34;2054688;70;20498;-78
2023/02/21 02:30:29;;;;;;;;;;;;;;;5.83;46.94;93129.13;2054732;70;20066;-79
2023/02/21 02:33:10;;;;;;;;;;;;;;;5.96;47.24;93130.19;2054065;69;20062;-79
2023/02/21 02:35:43;;;;;;;;;;;;;;;6.01;46.54;93121.59;2058011;69;20472;-80
2023/02/21 02:38:17;;;;;;;;;;;;;;;6.08;46.36;93128.41;2058536;69;20047;-81
2023/02/21 02:40:49;;;;;;;;;;;;;;;6.01;46.65;93120.84;2058183;69;20513;-80
2023/02/21 02:43:31;;;;;;;;;;;;;;;5.95;46.43;93118.25;2058352;69;20074;-79
2023/02/21 02:46:05;;;;;;;;;;;;;;;6.01;47.19;93118.06;2058098;69;20082;-77
2023/02/21 02:48:41;;;;;;;;;;;;;;;6.02;46.82;93116.72;2058472;69;20120;-80
2023/02/21 02:51:09;;;;;;;;;;;;;;;5.92;46.70;93115.88;2060778;69;20049;-81
2023/02/21 02:53:35;;;;;;;;;;;;;;;5.80;47.10;93110.72;2061391;69;20141;-81
2023/02/21 02:56:02;;;;;;;;;;;;;;;5.70;47.72;93107.06;2061274;69;20149;-80
2023/02/21 02:58:36;;;;;;;;;;;;;;;5.59;48.08;93101.94;2061263;69;20093;-80
2023/02/21 03:01:02;;;;;;;;;;;;;;;5.51;48.28;93107.56;2060944;69;20083;-81
2023/02/21 03:03:35;;;;;;;;;;;;;;;5.36;48.76;93102.09;2060832;69;20424;-76
2023/02/21 03:06:10;;;;;;;;;;;;;;;5.49;47.97;93104.59;2061122;69;20497;-76
2023/02/21 03:08:52;;;;;;;;;;;;;;;5.37;48.24;93106.34;2061147;69;20649;-74
2023/02/21 03:11:20;;;;;;;;;;;;;;;5.49;47.91;93106.63;2061419;69;20052;-78
2023/02/21 03:14:05;;;;;;;;;;;;;;;5.44;47.44;93099.97;2060658;69;20070;-79
2023/02/21 03:16:33;;;;;;;;;;;;;;;5.46;47.75;93093.84;2060830;69;20153;-75
2023/02/21 03:19:16;;;;;;;;;;;;;;;5.15;48.56;93093.25;2061122;69;20066;-76
2023/02/21 03:21:53;;;;;;;;;;;;;;;5.29;48.63;93095.22;2061564;69;20053;-77
2023/02/21 03:24:19;;;;;;;;;;;;;;;5.39;48.08;93089.03;2061174;69;20154;-76
2023/02/21 03:26:47;;;;;;;;;;;;;;;5.19;48.75;93091.56;2061178;69;20073;-74
2023/02/21 03:29:45;;;;;;;;;;;;;;;4.91;48.95;93089.84;2057440;69;20214;-74
2023/02/21 03:34:55;;;;;;;;;;;;;;;5.03;49.79;93084.56;2061129;69;20066;-73
2023/02/21 03:37:31;;;;;;;;;;;;;;;5.14;49.02;93081.34;2060955;69;20058;-78
2023/02/21 03:39:57;;;;;;;;;;;;;;;5.13;49.22;93076.31;2061723;69;20077;-78
2023/02/21 03:42:24;;;;;;;;;;;;;;;4.97;49.67;93075.69;2061295;69;20432;-75
2023/02/21 03:44:49;;;;;;;;;;;;;;;4.96;49.35;93079.78;2061641;69;20042;-79
2023/02/21 03:47:15;;;;;;;;;;;;;;;4.95;49.79;93076.25;2058181;69;20487;-78
2023/02/21 03:49:41;;;;;;;;;;;;;;;4.74;50.39;93070.94;2061779;69;20061;-80
2023/02/21 03:52:07;;;;;;;;;;;;;;;4.80;49.78;93070.72;2061275;69;20072;-78
2023/02/21 03:54:33;;;;;;;;;;;;;;;4.82;49.79;93056.97;2061085;69;20053;-80
2023/02/21 03:56:59;;;;;;;;;;;;;;;4.70;49.98;93067.06;2061141;69;20482;-80
2023/02/21 03:59:27;;;;;;;;;;;;;;;4.82;49.29;93063.28;2061219;69;20193;-80
2023/02/21 04:01:53;;;;;;;;;;;;;;;4.77;49.51;93060.72;2061103;69;20041;-81
2023/02/21 04:04:23;;;;;;;;;;;;;;;4.70;49.78;93062.22;2061116;69;20070;-80
2023/02/21 04:06:56;;;;;;;;;;;;;;;4.73;49.54;93052.72;2058463;69;20079;-80
2023/02/21 04:09:24;;;;;;;;;;;;;;;4.64;50.12;93052.59;2061035;69;20127;-75
2023/02/21 04:11:50;;;;;;;;;;;;;;;4.74;49.38;93065.38;2060876;69;20508;-76
2023/02/21 04:14:15;;;;;;;;;;;;;;;4.68;49.54;93069.69;2060762;69;20058;-75
2023/02/21 04:16:41;;;;;;;;;;;;;;;4.40;51.29;93076.25;2061267;69;20145;-80
2023/02/21 04:19:07;;;;;;;;;;;;;;;4.34;50.38;93073.66;2061457;69;20087;-79
2023/02/21 04:21:33;;;;;;;;;;;;;;;4.37;50.78;93072.56;2060997;69;20053;-80
2023/02/21 04:23:59;;;;;;;;;;;;;;;4.32;50.89;93076.28;2061169;69;20085;-80
2023/02/21 04:26:28;;;;;;;;;;;;;;;4.39;50.44;93081.09;2058345;69;20064;-79
2023/02/21 04:28:55;;;;;;;;;;;;;;;4.23;51.49;93088.75;2061010;69;20062;-78
2023/02/21 04:31:21;;;;;;;;;;;;;;;4.17;51.89;93079.09;2060844;69;20045;-78
2023/02/21 04:33:48;;;;;;;;;;;;;;;4.05;51.02;93073.91;2060706;69;20116;-79
2023/02/21 04:36:20;;;;;;;;;;;;;;;3.16;54.62;93083.19;2061064;69;20086;-78
2023/02/21 04:38:45;;;;;;;;;;;;;;;3.58;53.24;93068.22;2058353;69;20089;-78
2023/02/21 04:41:11;;;;;;;;;;;;;;;3.96;52.28;93073.75;2061562;69;20096;-80
2023/02/21 04:43:36;;;;;;;;;;;;;;;4.11;51.24;93070.94;2061193;69;20074;-77
2023/02/21 04:46:02;;;;;;;;;;;;;;;4.04;51.83;93069.66;2061161;69;20229;-73
2023/02/21 04:48:27;;;;;;;;;;;;;;;4.06;50.70;93067.03;2059696;69;20062;-81
2023/02/21 04:50:53;;;;;;;;;;;;;;;3.85;51.48;93071.34;2057966;69;20517;-81
2023/02/21 04:53:18;;;;;;;;;;;;;;;4.00;52.12;93074.88;2057709;69;20062;-81
2023/02/21 04:55:44;;;;;;;;;;;;;;;3.99;51.26;93067.81;2057945;69;20053;-81
2023/02/21 04:58:09;;;;;;;;;;;;;;;3.80;52.52;93075.78;2058146;69;20050;-81
2023/02/21 05:00:35;;;;;;;;;;;;;;;3.77;51.82;93076.94;2058098;69;20105;-81
2023/02/21 05:03:00;;;;;;;;;;;;;;;3.94;52.01;93079.91;2057591;69;20117;-81
2023/02/21 05:05:26;;;;;;;;;;;;;;;4.01;51.42;93067.97;2058133;69;20081;-80
2023/02/21 05:07:51;;;;;;;;;;;;;;;3.92;51.74;93074.13;2058251;69;20057;-80
2023/02/21 05:10:18;;;;;;;;;;;;;;;3.83;51.73;93077.47;2058047;69;20069;-82
2023/02/21 05:12:43;;;;;;;;;;;;;;;3.85;51.67;93079.69;2058217;69;20479;-75
2023/02/21 05:15:10;;;;;;;;;;;;;;;3.93;52.06;93074.88;2057746;69;20116;-75
2023/02/21 05:17:36;;;;;;;;;;;;;;;3.82;51.43;93078.78;2058002;69;20050;-82
2023/02/21 05:20:02;;;;;;;;;;;;;;;3.68;52.47;93080.28;2058134;69;20054;-83
2023/02/21 05:22:27;;;;;;;;;;;;;;;3.81;51.35;93075.25;2058119;69;20046;-82
2023/02/21 05:24:53;;;;;;;;;;;;;;;3.55;51.96;93070.78;2058137;69;20047;-81
2023/02/21 05:27:19;;;;;;;;;;;;;;;3.45;52.81;93078.22;2058118;69;20478;-82
2023/02/21 05:29:48;;;;;;;;;;;;;;;3.50;53.47;93076.56;2057921;69;20077;-79
2023/02/21 05:32:14;;;;;;;;;;;;;;;3.47;52.95;93083.22;2058214;69;20050;-80
2023/02/21 05:34:43;;;;;;;;;;;;;;;3.48;52.85;93081.91;2058407;69;20094;-81
2023/02/21 05:37:15;;;;;;;;;;;;;;;3.33;53.14;93085.44;2058496;69;20049;-82
2023/02/21 05:39:41;;;;;;;;;;;;;;;3.30;53.45;93083.78;2061830;69;20138;-82
2023/02/21 05:42:06;;;;;;;;;;;;;;;3.42;53.67;93086.94;2061967;69;20592;-81
2023/02/21 05:44:32;;;;;;;;;;;;;;;3.47;53.08;93089.53;2061853;69;20054;-78
2023/02/21 05:46:57;;;;;;;;;;;;;;;3.33;53.48;93088.22;2061274;69;20053;-79
2023/02/21 05:49:23;;;;;;;;;;;;;;;3.37;53.96;93088.59;2061825;69;20534;-77
2023/02/21 05:51:48;;;;;;;;;;;;;;;3.66;52.47;93075.25;2062052;69;20119;-80
2023/02/21 05:54:15;;;;;;;;;;;;;;;3.76;52.26;93084.53;2061386;69;20496;-81
2023/02/21 05:56:41;;;;;;;;;;;;;;;3.65;51.98;93082.13;2061167;69;20045;-81
2023/02/21 05:59:07;;;;;;;;;;;;;;;3.67;51.92;93081.56;2061372;69;20188;-80
2023/02/21 06:01:33;;;;;;;;;;;;;;;3.45;52.86;93080.25;2061651;69;20048;-80
2023/02/21 06:03:58;;;;;;;;;;;;;;;3.45;52.50;93088.63;2061625;69;20115;-79
2023/02/21 06:06:24;;;;;;;;;;;;;;;3.31;53.58;93096.38;2060166;69;20115;-80
2023/02/21 06:08:51;;;;;;;;;;;;;;;3.48;53.41;93098.63;2057774;69;20054;-79
2023/02/21 06:11:26;;;;;;;;;;;;;;;3.64;52.71;93107.75;2058071;69;20429;-77
2023/02/21 06:13:53;;;;;;;;;;;;;;;3.13;53.40;93109.34;2058477;69;20490;-75
2023/02/21 06:16:18;;;;;;;;;;;;;;;3.19;52.70;93106.38;2058594;69;20054;-75
2023/02/21 06:18:44;;;;;;;;;;;;;;;3.18;53.78;93105.63;2058441;69;20478;-81
2023/02/21 06:21:09;;;;;;;;;;;;;;;3.21;54.36;93114.94;2058020;69;20089;-76
2023/02/21 06:23:34;;;;;;;;;;;;;;;3.03;54.55;93119.50;2058577;69;20053;-79
2023/02/21 06:26:00;;;;;;;;;;;;;;;2.92;55.06;93117.06;2058682;69;20042;-81
2023/02/21 06:28:28;;;;;;;;;;;;;;;3.13;54.60;93123.25;2058531;69;20053;-81
2023/02/21 06:30:54;;;;;;;;;;;;;;;3.03;53.92;93128.59;2058571;69;20062;-81
2023/02/21 06:33:20;;;;;;;;;;;;;;;3.00;55.05;93128.94;2058400;69;20046;-80
2023/02/21 06:35:45;;;;;;;;;;;;;;;3.23;54.26;93134.56;2058674;69;20117;-81
2023/02/21 06:38:11;;;;;;;;;;;;;;;2.91;54.18;93140.59;2058455;69;20085;-78
2023/02/21 06:40:36;;;;;;;;;;;;;;;3.01;54.37;93136.75;2058544;69;20490;-79
2023/02/21 06:43:01;;;;;;;;;;;;;;;3.05;54.70;93139.16;2058622;69;20046;-78
2023/02/21 06:45:27;;;;;;;;;;;;;;;3.12;54.50;93134.94;2058547;69;20550;-78
2023/02/21 06:47:52;;;;;;;;;;;;;;;3.06;54.17;93143.44;2058403;69;20494;-73
2023/02/21 06:50:18;;;;;;;;;;;;;;;3.17;54.29;93142.38;2058024;69;20493;-78
2023/02/21 06:52:43;;;;;;;;;;;;;;;3.25;54.62;93135.53;2058426;69;20050;-78
2023/02/21 06:55:09;;;;;;;;;;;;;;;3.24;54.65;93147.19;2058444;69;20156;-78
2023/02/21 06:57:34;;;;;;;;;;;;;;;3.00;55.18;93151.19;2058389;69;20061;-79
2023/02/21 07:00:00;;;;;;;;;;;;;;;3.04;55.30;93149.56;2058564;69;20552;-78
2023/02/21 07:02:25;;;;;;;;;;;;;;;3.20;55.21;93157.94;2058391;69;20086;-78
2023/02/21 07:04:51;;;;;;;;;;;;;;;3.18;55.12;93150.16;2058573;69;20579;-77
2023/02/21 07:07:16;;;;;;;;;;;;;;;3.24;55.04;93158.31;2058283;69;20065;-78
2023/02/21 07:09:41;;;;;;;;;;;;;;;3.41;54.72;93155.78;2058494;69;20078;-77
2023/02/21 07:12:10;;;;;;;;;;;;;;;3.26;54.53;93155.75;2058691;69;20053;-79
2023/02/21 07:14:35;;;;;;;;;;;;;;;3.19;54.43;93156.47;2058117;69;20058;-80
2023/02/21 07:17:01;;;;;;;;;;;;;;;3.27;55.20;93152.41;2058371;69;20045;-79
2023/02/21 07:19:26;;;;;;;;;;;;;;;3.29;55.07;93155.38;2058366;69;20185;-74
2023/02/21 07:21:53;;;;;;;;;;;;;;;3.48;54.24;93146.72;2057954;69;20142;-78
2023/02/21 07:24:18;;;;;;;;;;;;;;;3.25;54.31;93157.78;2058582;69;20058;-79
2023/02/21 07:26:43;;;;;;;;;;;;;;;3.29;54.61;93158.16;2054441;69;20421;-79
2023/02/21 07:29:10;;;;;;;;;;;;;;;3.34;54.72;93152.97;2056686;69;20069;-80
2023/02/21 07:31:35;;;;;;;;;;;;;;;3.10;55.29;93162.53;2056319;69;20077;-79
2023/02/21 07:34:00;;;;;;;;;;;;;;;2.97;55.84;93161.38;2054791;69;20069;-79
2023/02/21 07:36:26;;;;;;;;;;;;;;;3.20;55.16;93157.94;2053356;69;20082;-78
2023/02/21 07:38:51;;;;;;;;;;;;;;;3.03;55.76;93161.97;2053698;69;20058;-78
2023/02/21 07:41:17;;;;;;;;;;;;;;;3.25;55.48;93163.34;2053938;69;20519;-79
2023/02/21 07:43:42;;;;;;;;;;;;;;;3.47;54.98;93161.91;2054069;69;20058;-80
2023/02/21 07:46:09;;;;;;;;;;;;;;;3.30;55.55;93162.44;2055074;69;20057;-78
2023/02/21 07:48:34;;;;;;;;;;;;;;;3.39;54.94;93166.72;2054887;69;20043;-75
2023/02/21 07:51:00;;;;;;;;;;;;;;;3.50;54.54;93177.50;2055205;69;20498;-78
2023/02/21 07:53:25;;;;;;;;;;;;;;;3.41;54.69;93161.34;2055167;69;20074;-80
2023/02/21 07:55:50;;;;;;;;;;;;;;;3.54;54.67;93166.75;2055228;69;20113;-80
2023/02/21 07:58:16;;;;;;;;;;;;;;;3.55;54.66;93170.28;2055269;69;20481;-80
2023/02/21 08:00:42;;;;;;;;;;;;;;;3.61;54.16;93156.91;2054518;70;20061;-78
2023/02/21 08:03:11;;;;;;;;;;;;;;;3.61;54.60;93159.69;2055044;69;20116;-79
2023/02/21 08:05:36;;;;;;;;;;;;;;;3.61;54.13;93159.69;2055104;69;20081;-80
2023/02/21 08:08:01;;;;;;;;;;;;;;;3.73;53.79;93160.84;2055176;69;20483;-79
2023/02/21 08:10:28;;;;;;;;;;;;;;;3.81;54.33;93160.84;2055144;69;20173;-79
2023/02/21 08:12:53;;;;;;;;;;;;;;;3.77;54.00;93161.22;2055190;69;20050;-79
2023/02/21 08:15:19;;;;;;;;;;;;;;;3.82;54.05;93159.53;2055047;69;20046;-79
2023/02/21 08:17:47;;;;;;;;;;;;;;;3.88;53.77;93151.00;2054802;69;20053;-79
2023/02/21 08:20:12;;;;;;;;;;;;;;;3.91;53.29;93161.78;2054969;69;20050;-77
2023/02/21 08:22:38;;;;;;;;;;;;;;;3.91;53.93;93161.78;2054482;70;20057;-80
2023/02/21 08:25:03;;;;;;;;;;;;;;;3.97;54.37;93150.44;2055278;69;20054;-79
2023/02/21 08:27:28;;;;;;;;;;;;;;;4.07;54.15;93156.94;2055153;69;20042;-78
2023/02/21 08:29:54;;;;;;;;;;;;;;;4.21;53.18;93155.44;2055145;69;20051;-77
2023/02/21 08:32:20;;;;;;;;;;;;;;;4.34;53.02;93148.94;2055010;69;20142;-80
2023/02/21 08:34:46;;;;;;;;;;;;;;;4.66;52.53;93145.53;2057039;69;20515;-80
2023/02/21 08:37:18;;;;;;;;;;;;;;;5.08;53.36;93142.22;2058394;69;20109;-79
2023/02/21 08:39:48;;;;;;;;;;;;;;;5.46;52.38;93139.25;2058361;69;20054;-80
2023/02/21 08:42:13;;;;;;;;;;;;;;;5.95;49.94;93134.28;2058406;69;20533;-80
2023/02/21 08:44:41;;;;;;;;;;;;;;;6.13;51.43;93138.63;2058558;69;20050;-77
2023/02/21 08:47:07;;;;;;;;;;;;;;;6.70;49.29;93137.00;2057715;69;20132;-80
2023/02/21 08:49:32;;;;;;;;;;;;;;;6.98;48.78;93135.75;2058227;69;20042;-80
2023/02/21 08:51:58;;;;;;;;;;;;;;;7.58;47.61;93139.09;2058483;69;20050;-78
2023/02/21 08:54:23;;;;;;;;;;;;;;;7.75;46.19;93133.44;2058269;69;20054;-80
2023/02/21 08:56:49;;;;;;;;;;;;;;;8.47;44.74;93133.28;2058411;69;20106;-81
2023/02/21 08:59:15;;;;;;;;;;;;;;;8.40;44.01;93130.03;2058243;69;20201;-81
2023/02/21 09:01:41;;;;;;;;;;;;;;;9.12;44.85;93119.19;2058105;69;20137;-81
2023/02/21 09:04:06;;;;;;;;;;;;;;;9.35;43.02;93118.72;2058243;69;20085;-81
2023/02/21 09:06:32;;;;;;;;;;;;;;;9.89;41.81;93121.09;2058328;69;20053;-80
2023/02/21 09:08:57;;;;;;;;;;;;;;;10.19;42.27;93111.22;2058257;69;20200;-79
2023/02/21 09:11:23;;;;;;;;;;;;;;;10.00;41.93;93113.38;2058289;69;20431;-80
2023/02/21 09:13:48;;;;;;;;;;;;;;;10.57;41.31;93106.03;2058381;69;20407;-79
2023/02/21 09:16:14;;;;;;;;;;;;;;;10.82;39.31;93103.50;2058177;69;20070;-79
2023/02/21 09:18:39;;;;;;;;;;;;;;;11.33;38.00;93098.34;2058691;69;20482;-79
2023/02/21 09:21:05;;;;;;;;;;;;;;;11.57;36.70;93101.97;2057953;69;20116;-80
2023/02/21 09:23:31;;;;;;;;;;;;;;;11.69;36.76;93093.56;2058270;69;20052;-80
2023/02/21 09:25:56;;;;;;;;;;;;;;;11.95;36.12;93097.28;2058147;69;20082;-80
2023/02/21 09:28:22;;;;;;;;;;;;;;;12.25;36.63;93104.06;2058507;69;20083;-80
2023/02/21 09:30:48;;;;;;;;;;;;;;;12.19;35.40;93092.44;2058141;69;20180;-81
2023/02/21 09:33:14;;;;;;;;;;;;;;;12.63;34.03;93096.44;2058096;69;20064;-80
2023/02/21 09:35:39;;;;;;;;;;;;;;;12.78;34.05;93095.94;2058231;69;20058;-81
2023/02/21 09:38:08;;;;;;;;;;;;;;;12.87;33.42;93089.41;2057638;69;20434;-80
2023/02/21 09:40:39;;;;;;;;;;;;;;;13.45;33.64;93093.44;2058303;69;20046;-80
2023/02/21 09:43:08;;;;;;;;;;;;;;;14.16;30.58;93082.47;2058203;69;20062;-80
2023/02/21 09:45:35;;;;;;;;;;;;;;;14.17;29.15;93076.16;2058204;69;20061;-76
2023/02/21 09:48:04;;;;;;;;;;;;;;;14.26;29.17;93076.59;2058199;69;20058;-80
2023/02/21 09:50:32;;;;;;;;;;;;;;;14.84;29.67;93070.44;2058599;69;20486;-77
2023/02/21 09:52:59;;;;;;;;;;;;;;;15.05;27.40;93077.88;2058697;69;20136;-78
2023/02/21 09:55:24;;;;;;;;;;;;;;;14.65;28.68;93065.22;2058510;69;20077;-80
2023/02/21 09:57:49;;;;;;;;;;;;;;;15.29;29.23;93064.16;2058383;69;20478;-79
2023/02/21 10:00:16;;;;;;;;;;;;;;;15.77;27.93;93065.09;2058527;69;20052;-79
2023/02/21 10:02:49;;;;;;;;;;;;;;;16.36;26.82;93062.13;2058467;69;20124;-77
2023/02/21 10:05:25;;;;;;;;;;;;;;;16.62;26.52;93073.19;2058709;69;20066;-80
2023/02/21 10:07:51;;;;;;;;;;;;;;;15.94;27.78;93064.50;2059695;69;20120;-79
2023/02/21 10:10:20;;;;;;;;;;;;;;;16.91;25.79;93063.84;2060886;69;20066;-78
2023/02/21 10:12:46;;;;;;;;;;;;;;;16.87;24.60;93064.41;2061927;69;20471;-75
2023/02/21 10:15:14;;;;;;;;;;;;;;;16.58;26.49;93061.66;2061045;69;20049;-77
2023/02/21 10:17:48;;;;;;;;;;;;;;;17.84;25.34;93060.56;2059036;69;20120;-79
2023/02/21 10:20:20;;;;;;;;;;;;;;;18.21;25.23;93065.56;2058369;69;20141;-78
2023/02/21 10:22:47;;;;;;;;;;;;;;;17.88;22.87;93060.72;2061181;69;20566;-78
2023/02/21 10:25:21;;;;;;;;;;;;;;;17.23;23.10;93055.97;2062009;69;20057;-76
2023/02/21 10:27:48;;;;;;;;;;;;;;;18.83;23.22;93049.38;2061894;69;20061;-75
2023/02/21 10:30:22;;;;;;;;;;;;;;;18.24;24.34;93047.91;2061911;69;20084;-75
2023/02/21 10:32:48;;;;;;;;;;;;;;;18.46;23.79;93047.25;2062229;69;20097;-75
2023/02/21 10:35:13;;;;;;;;;;;;;;;19.37;21.94;93038.38;2061885;69;20133;-77
2023/02/21 10:37:39;;;;;;;;;;;;;;;19.29;22.16;93036.00;2061699;69;20052;-79
2023/02/21 10:40:08;;;;;;;;;;;;;;;20.71;21.99;93032.53;2061952;69;20464;-79
2023/02/21 10:42:36;;;;;;;;;;;;;;;21.10;21.18;93036.47;2061873;69;20053;-77
2023/02/21 10:45:03;;;;;;;;;;;;;;;21.69;20.87;93027.28;2062105;69;20582;-76
2023/02/21 10:47:44;;;;;;;;;;;;;;;21.33;20.45;93026.38;2061786;69;20479;-77
2023/02/21 10:50:10;;;;;;;;;;;;;;;21.67;20.17;93024.41;2061924;69;20061;-77
2023/02/21 10:52:46;;;;;;;;;;;;;;;21.11;20.13;93018.63;2061903;69;20046;-76
2023/02/21 10:55:14;;;;;;;;;;;;;;;21.29;20.75;93021.22;2062032;69;20199;-74
2023/02/21 10:57:42;;;;;;;;;;;;;;;22.23;20.86;93020.72;2061965;69;20088;-75
2023/02/21 11:00:09;;;;;;;;;;;;;;;23.37;19.69;93019.41;2062069;69;20075;-79
2023/02/21 11:02:38;;;;;;;;;;;;;;;24.23;18.56;93005.06;2061713;69;20101;-74
2023/02/21 11:05:23;;;;;;;;;;;;;;;24.09;18.64;93008.44;2061916;69;20050;-76
2023/02/21 11:08:00;;;;;;;;;;;;;;;26.09;18.34;93013.69;2061899;69;20514;-76
2023/02/21 11:10:41;;;;;;;;;;;;;;;26.91;16.21;93010.63;2061756;69;20046;-76
2023/02/21 11:13:16;;;;;;;;;;;;;;;27.54;16.30;93011.59;2061823;69;20074;-77
2023/02/21 11:15:42;;;;;;;;;;;;;;;26.97;15.92;93001.97;2061765;69;20054;-78
2023/02/21 11:18:35;;;;;;;;;;;;;;;27.97;15.46;93005.88;2061699;69;20076;-76
2023/02/21 11:21:12;;;;;;;;;;;;;;;28.28;15.38;92994.31;2061386;69;20542;-77
2023/02/21 11:23:44;;;;;;;;;;;;;;;28.12;14.99;92997.91;2061719;69;20082;-78
2023/02/21 11:26:10;;;;;;;;;;;;;;;27.39;14.84;92989.13;2061989;69;20046;-78
2023/02/21 11:28:42;;;;;;;;;;;;;;;24.80;16.60;92970.59;2061845;69;20049;-78
2023/02/21 11:31:14;;;;;;;;;;;;;;;27.90;16.00;92980.53;2061736;69;20725;-76
2023/02/21 11:33:51;;;;;;;;;;;;;;;29.59;14.66;92977.22;2061567;69;20113;-75
2023/02/21 11:36:18;;;;;;;;;;;;;;;30.23;13.91;92974.59;2061734;69;20441;-78
2023/02/21 11:38:46;;;;;;;;;;;;;;;29.99;13.84;92964.63;2061251;69;20053;-78
2023/02/21 11:41:29;;;;;;;;;;;;;;;29.01;14.10;92956.50;2061633;69;20141;-77
2023/02/21 11:43:56;;;;;;;;;;;;;;;29.95;14.22;92955.22;2057012;69;20089;-77
2023/02/21 11:46:30;;;;;;;;;;;;;;;32.87;13.62;92958.66;2056657;69;20485;-78
2023/02/21 11:49:00;;;;;;;;;;;;;;;32.45;12.98;92947.78;2056992;69;20057;-76
2023/02/21 11:51:42;;;;;;;;;;;;;;;34.63;11.96;92951.84;2055200;69;20058;-75
2023/02/21 11:54:08;;;;;;;;;;;;;;;33.65;11.60;92945.41;2054622;69;20081;-78
2023/02/21 11:56:42;;;;;;;;;;;;;;;32.10;12.09;92943.25;2055206;70;20054;-76
2023/02/21 11:59:24;;;;;;;;;;;;;;;33.71;12.17;92935.81;2054976;69;20157;-79
2023/02/21 12:01:59;;;;;;;;;;;;;;;34.25;11.54;92925.03;2055234;69;20091;-79
2023/02/21 12:04:24;;;;;;;;;;;;;;;34.29;11.03;92924.22;2057309;69;20121;-76
2023/02/21 12:07:29;;;;;;;;;;;;;;;34.44;10.82;92927.50;2056320;69;20058;-77
2023/02/21 12:10:00;;;;;;;;;;;;;;;35.56;10.25;92925.16;2048467;70;20154;-79
2023/02/21 12:12:40;;;;;;;;;;;;;;;37.40;10.50;92916.09;2047623;70;20051;-78
2023/02/21 12:15:20;;;;;;;;;;;;;;;36.07;10.78;92903.06;2052020;70;20112;-79
2023/02/21 12:18:05;;;;;;;;;;;;;;;36.09;9.86;92900.06;2054851;70;20164;-78
2023/02/21 12:20:43;;;;;;;;;;;;;;;37.19;9.98;92900.72;2055001;69;20055;-78
2023/02/21 12:23:11;;;;;;;;;;;;;;;35.27;10.51;92887.19;2054969;70;20062;-78
2023/02/21 12:25:46;;;;;;;;;;;;;;;35.38;10.46;92876.63;2054861;69;20069;-76
2023/02/21 12:28:16;;;;;;;;;;;;;;;37.68;9.71;92884.94;2054933;69;20064;-76
2023/02/21 12:31:00;;;;;;;;;;;;;;;37.53;9.68;92884.06;2054941;69;20502;-77
2023/02/21 12:33:33;;;;;;;;;;;;;;;38.25;9.07;92879.69;2054786;69;20058;-77
2023/02/21 12:36:11;;;;;;;;;;;;;;;38.87;9.56;92866.81;2054866;69;20184;-77
2023/02/21 12:38:41;;;;;;;;;;;;;;;38.94;9.35;92875.34;2054945;69;20050;-77
2023/02/21 12:41:13;;;;;;;;;;;;;;;39.65;8.95;92869.22;2051612;70;20046;-77
2023/02/21 12:43:44;;;;;;;;;;;;;;;38.10;8.70;92864.88;2054753;69;20141;-77
2023/02/21 12:46:17;;;;;;;;;;;;;;;39.36;8.81;92858.75;2055641;69;20046;-76
2023/02/21 12:48:50;;;;;;;;;;;;;;;40.38;8.47;92853.16;2054845;69;20146;-78
2023/02/21 12:51:20;;;;;;;;;;;;;;;37.65;9.04;92849.03;2054937;69;20059;-77
2023/02/21 12:53:52;;;;;;;;;;;;;;;37.37;9.40;92850.84;2054886;69;20050;-78
2023/02/21 12:56:29;;;;;;;;;;;;;;;38.30;8.51;92842.78;2054871;69;20461;-77
2023/02/21 12:59:17;;;;;;;;;;;;;;;40.04;8.97;92843.75;2054994;69;20054;-78
2023/02/21 13:01:52;;;;;;;;;;;;;;;40.69;8.10;92831.69;2054219;69;20080;-76
2023/02/21 13:04:33;;;;;;;;;;;;;;;41.20;7.91;92831.97;2054886;69;20073;-75
2023/02/21 13:07:17;;;;;;;;;;;;;;;41.61;7.82;92824.56;2054905;69;20418;-78
2023/02/21 13:09:47;;;;;;;;;;;;;;;41.74;7.55;92820.91;2054955;69;20054;-77
2023/02/21 13:12:15;;;;;;;;;;;;;;;40.28;7.71;92815.34;2055087;69;20061;-78
2023/02/21 13:14:44;;;;;;;;;;;;;;;39.41;8.03;92815.09;2054351;70;20124;-78
2023/02/21 13:17:13;;;;;;;;;;;;;;;37.92;8.31;92809.09;2054858;69;20234;-78
2023/02/21 13:19:43;;;;;;;;;;;;;;;39.57;8.69;92811.38;2054941;69;20062;-78
2023/02/21 13:22:27;;;;;;;;;;;;;;;39.94;7.72;92808.91;2055080;69;20066;-78
2023/02/21 13:25:03;;;;;;;;;;;;;;;39.93;7.54;92805.25;2055108;69;20070;-79
2023/02/21 13:27:31;;;;;;;;;;;;;;;40.94;7.13;92800.88;2054934;69;20134;-75
2023/02/21 13:30:16;;;;;;;;;;;;;;;40.47;8.01;92794.47;2054825;69;20143;-78
2023/02/21 13:32:50;;;;;;;;;;;;;;;41.15;8.25;92786.47;2054748;69;20053;-77
2023/02/21 13:35:19;;;;;;;;;;;;;;;39.78;8.15;92784.63;2054853;69;20057;-78
2023/02/21 13:37:46;;;;;;;;;;;;;;;38.92;8.29;92782.00;2054878;69;20089;-78
2023/02/21 13:40:23;;;;;;;;;;;;;;;40.35;7.84;92775.16;2054812;69;20050;-78
2023/02/21 13:42:58;;;;;;;;;;;;;;;38.12;7.94;92770.03;2055041;69;20580;-78
2023/02/21 13:45:25;;;;;;;;;;;;;;;35.68;9.21;92765.25;2054256;69;20058;-78
2023/02/21 13:48:10;;;;;;;;;;;;;;;35.11;9.96;92771.41;2054940;69;20050;-78
2023/02/21 13:50:38;;;;;;;;;;;;;;;33.73;9.90;92763.56;2055078;69;20055;-78
2023/02/21 13:53:07;;;;;;;;;;;;;;;33.14;10.95;92748.91;2055064;69;20141;-78
2023/02/21 13:55:34;;;;;;;;;;;;;;;32.77;10.63;92748.28;2055066;69;20058;-78
2023/02/21 13:58:00;;;;;;;;;;;;;;;32.85;10.36;92745.91;2054533;70;20051;-78
2023/02/21 14:00:25;;;;;;;;;;;;;;;31.10;11.79;92744.03;2055093;69;20065;-77
2023/02/21 14:02:57;;;;;;;;;;;;;;;32.17;12.07;92742.22;2055126;69;20137;-77
2023/02/21 14:05:23;;;;;;;;;;;;;;;30.19;12.31;92731.50;2055306;69;20143;-78
2023/02/21 14:07:55;;;;;;;;;;;;;;;30.66;13.23;92727.97;2055307;69;20112;-78
2023/02/21 14:10:29;;;;;;;;;;;;;;;31.61;12.17;92730.84;2055397;69;20101;-77
2023/02/21 14:13:00;;;;;;;;;;;;;;;30.83;11.95;92728.47;2055349;70;20058;-77
2023/02/21 14:15:36;;;;;;;;;;;;;;;29.02;12.84;92714.53;2055261;69;20515;-78
2023/02/21 14:18:02;;;;;;;;;;;;;;;29.74;13.15;92725.50;2055305;69;20423;-78
2023/02/21 14:20:28;;;;;;;;;;;;;;;29.62;13.51;92715.44;2054820;69;20176;-78
2023/02/21 14:22:56;;;;;;;;;;;;;;;29.13;14.96;92710.06;2055383;70;20475;-78
2023/02/21 14:25:23;;;;;;;;;;;;;;;27.88;14.61;92708.66;2055307;69;20487;-78
2023/02/21 14:27:52;;;;;;;;;;;;;;;25.52;14.83;92706.94;2055225;69;20145;-78
2023/02/21 14:30:33;;;;;;;;;;;;;;;26.13;15.54;92706.50;2055495;69;20101;-79
2023/02/21 14:33:09;;;;;;;;;;;;;;;24.69;15.43;92702.06;2058650;69;20588;-80
2023/02/21 14:35:36;;;;;;;;;;;;;;;24.22;16.54;92698.00;2059234;69;20062;-79
2023/02/21 14:38:04;;;;;;;;;;;;;;;22.77;17.54;92696.88;2056766;69;20053;-79
2023/02/21 14:40:39;;;;;;;;;;;;;;;22.18;18.04;92693.03;2055164;70;20062;-78
2023/02/21 14:43:21;;;;;;;;;;;;;;;21.82;18.70;92690.94;2055846;69;20053;-80
2023/02/21 14:45:50;;;;;;;;;;;;;;;20.43;19.15;92695.75;2055567;69;20487;-78
2023/02/21 14:48:39;;;;;;;;;;;;;;;20.27;20.27;92692.50;2055121;70;20066;-78
2023/02/21 14:51:11;;;;;;;;;;;;;;;19.29;20.71;92689.91;2055209;69;20082;-79
2023/02/21 14:53:55;;;;;;;;;;;;;;;19.20;21.21;92683.25;2055195;69;20481;-79
2023/02/21 14:56:40;;;;;;;;;;;;;;;18.75;21.67;92687.63;2055200;69;20051;-78
2023/02/21 14:59:24;;;;;;;;;;;;;;;18.85;22.87;92689.34;2055122;69;20046;-79
2023/02/21 15:01:52;;;;;;;;;;;;;;;18.48;22.83;92680.38;2055156;69;20053;-79
2023/02/21 15:04:24;;;;;;;;;;;;;;;18.03;23.26;92675.34;2055381;69;20066;-79
2023/02/21 15:07:02;;;;;;;;;;;;;;;18.23;23.44;92675.28;2055230;69;20102;-80
2023/02/21 15:09:27;;;;;;;;;;;;;;;17.95;23.71;92672.97;2054813;69;20149;-80
2023/02/21 15:11:55;;;;;;;;;;;;;;;17.25;24.19;92672.69;2055309;69;20139;-80
2023/02/21 15:14:29;;;;;;;;;;;;;;;17.20;24.59;92671.09;2055232;69;20215;-80
2023/02/21 15:16:56;;;;;;;;;;;;;;;16.55;25.50;92671.50;2055221;69;20503;-79
2023/02/21 15:19:32;;;;;;;;;;;;;;;16.40;25.64;92669.47;2055287;69;20055;-78
2023/02/21 15:22:13;;;;;;;;;;;;;;;15.79;26.63;92661.41;2055249;69;20074;-76